Arctic Bay, Canada
Current Conditions -  °F | °C
As of 8:56 PM on Wednesday 22 Oct 2014 (Local Time) from CYIO Reporting Station
Light Snow Light Snow  
Wind Chill: -21°   Ceiling: Unl
Heat Index:   Visibility: 5mi
Dew Point: -4°   Wind: 30mph
Humidity: 72%   Direction: 290°WNW
Pressure: 29.69"   Gusts: 41mph
Location:  73.03°N, 85.17°W
Report Text: CYIO 230156Z AUTO 29026G36KT 5SM -SN CLR M16/M20 A2969 RMK SLP062
Loading
Personal Weather Stations






























Interactive Weather Map New forecast layout! Learn more

10-Day Weather Forecast

Advertisements
Track Severe Weather on mobile